Pullman Moscow Regional Airport
KPUW : now visible

Airfield :











YOU CAN JOIN US ON...

 
LOGIN :

Register | Disclaimer

   EN    FR    IT 

 









Legend :    VFR   Marginal VFR   IFR   Intensive IFR   Very Intensive IFR
Visi :
Ceiling :
>= 8 km
>= 3000ft
5 to 8 km
1000 to 3000 ft
1500m to 5 km
500 to 1000 ft
800 to 1500m
200 to 500 ft
< 800m
< 200 ft
Symbols :   Thunderstorms  Fog  Heavy snow  Heavy precipitations  Wind > 20 kt






- Airport Elevation : 2556 ft
- IATA code : PUW


KPUW - Pullman Moscow Regional

CURRENT METAR :
  • 231353Z AUTO 04004KT 10SM BKN100 BKN110 01/M02 A2999 RMK AO2 SLP172 T00061022

EXPIRED METARs :
  • 231253Z AUTO 07007KT 10SM OVC100 02/M02 A2998 RMK AO2 SLP167 T00171022
  • 231153Z AUTO 06004KT 10SM OVC110 02/M02 A2999 RMK AO2 SLP168 T00171022 10028 20000 58003

TAF KPUW
Valid from the 23 at 12:00 until the 24 at 12:00 UTC


231123Z 2312/2412 00000KT P6SM BKN150 OVC200
FM231500 12011KT P6SM VCSH BKN050 OVC070
FM231800 20018G25KT P6SM -RA OVC025
FM232200 26025G38KT P6SM -SHRA SCT025 OVC050
FM240300 25020G28KT P6SM SCT025 BKN050
FM240600 25018KT P6SM BKN100



MET'MAP, your aeronautical weather chart ! - Copyright ORBIFLY December 2007 - Disclaimer

ORBIFLY MET'MAP TEAM :

Programming & Development : Alexandra Zaïnal
Concept & original design : Baudouin d'Aumeries
Assistance for programming : Marc-Olivier Méhu
Technical & hardware support : Manuel Goepfert

Contact : metmap@orbifly.com




SOURCES & CREDITS :

   NOAA       Earth
Advisory